Pagrindinis puslapis
METAR-TAF:

METAR-TAF

Oro uostai :

Aigen im Ennstal, Austrija

platuma: 47-32N, ilguma: 014-08E, Aukštis: 638 m

METAR: trūkstamas

Laikas: 01:51 (23:51 UTC)

Prognozė

Ataskaita buvo paskelbta 6 valandos ir 36 minutes, ne 17:15 UTC
Prognozė galioja nuo 07 metu 18 UTC su 08 metu 03 UTC
Vėjas 3 kt nuo kintamojo kryptimis
Matomumas 10 km arba daugiau
Giedras dangus
Laikinai
nuo 07 metu 18 UTC su 07 metu 19 UTC
Vėjas 7 kt iš Šiaurės/Šiaurės Rytų

TAF: LOXA 071715Z 0718/0803 VRB03KT 9999 SKC TEMPO 0718/0719 03007KT

Orai ataskaitas ir orų prognozės (METAR, TAF).

turimą stotys yra geltonos ir raudonos taškus žemėlapyje.

Perkelti pele per norėdami pamatyti stoties vardą.

Tada spustelėkite, norėdami matyti oro stebėjimo ir prognozės.

Norėdami pakeisti žemėlapį: spustelėkite ant žalios mygtukų su juodo kryžiaus žemyn,; žalią mygtuką su brūkšneliu, jei norite nutolinti; arba žalių rodyklių gretimoms žemėlapius.


METAR-TAF: